Fairfield Center, Indiana
Current Conditions -  °F | °C
As of 5:35 AM on Wednesday 22 Oct 2014 (Local Time) from KGWB Reporting Station
Overcast Overcast  
Wind Chill: 37°   Ceiling: 2800
Heat Index: 41°   Visibility: 10mi
Dew Point: 34°   Wind: 6mph
Humidity: 76%   Direction: 360°N
Pressure: 30.28"   Gusts: NA
Location:  41.4621°N, 85.1517°W
Report Text: KGWB 220935Z AUTO 36005KT 10SM OVC028 05/01 A3028 RMK AO2
Loading
Personal Weather Stations






























Interactive Weather Map New forecast layout! Learn more

10-Day Weather Forecast

Advertisements
Track Severe Weather on mobile